createdAt,value
2023-07-30T00:02:12.830Z,94.46
2023-07-30T00:05:14.328Z,94.92
2023-07-30T00:08:15.848Z,95.13
2023-07-30T00:11:17.563Z,95.05
2023-07-30T00:14:19.487Z,95.52
2023-07-30T00:17:20.994Z,95.38
2023-07-30T00:20:22.683Z,94.74
2023-07-30T00:23:24.218Z,94.72
2023-07-30T00:26:27.439Z,94.83
2023-07-30T00:29:28.945Z,94.22
2023-07-30T00:32:30.487Z,93.27
2023-07-30T00:35:32.094Z,92.78
2023-07-30T00:38:33.639Z,93.28
2023-07-30T00:41:35.232Z,93.11
2023-07-30T00:44:36.908Z,92.99
2023-07-30T00:47:39.665Z,92.76
2023-07-30T00:50:42.655Z,92.83
2023-07-30T00:53:44.311Z,93.37
2023-07-30T00:56:52.741Z,93.42
2023-07-30T00:59:54.770Z,93.90
2023-07-30T01:02:57.053Z,94.54
2023-07-30T01:05:58.822Z,95.04
2023-07-30T01:09:00.461Z,95.62
2023-07-30T01:12:03.419Z,96.57
2023-07-30T01:15:05.702Z,97.17
2023-07-30T01:18:07.411Z,97.41
2023-07-30T01:21:08.933Z,97.43
2023-07-30T01:24:10.598Z,98.04
2023-07-30T01:27:17.987Z,98.44
2023-07-30T01:30:26.726Z,98.50
2023-07-30T01:33:29.378Z,98.91
2023-07-30T01:36:32.496Z,99.10
2023-07-30T01:39:36.318Z,99.15
2023-07-30T01:42:37.872Z,99.68
2023-07-30T01:45:41.043Z,99.92
2023-07-30T01:48:42.589Z,100.00
2023-07-30T01:51:44.148Z,100.00
2023-07-30T01:54:45.796Z,100.00
2023-07-30T01:57:47.344Z,100.00
2023-07-30T02:00:48.924Z,100.00
2023-07-30T02:03:50.426Z,100.00
2023-07-30T02:06:52.165Z,100.00
2023-07-30T02:09:54.099Z,100.00
2023-07-30T02:12:55.721Z,100.00
2023-07-30T02:15:57.250Z,100.00
2023-07-30T02:18:58.809Z,100.00
2023-07-30T02:22:00.396Z,100.00
2023-07-30T02:25:03.069Z,100.00
2023-07-30T02:28:04.931Z,100.00
2023-07-30T02:31:06.510Z,100.00
2023-07-30T02:34:08.995Z,100.00
2023-07-30T02:37:10.475Z,100.00
2023-07-30T02:40:12.441Z,100.00
2023-07-30T02:43:14.085Z,100.00
2023-07-30T02:46:15.792Z,100.00
2023-07-30T02:49:17.337Z,100.00
2023-07-30T02:52:18.890Z,98.78
2023-07-30T02:55:20.439Z,97.92
2023-07-30T02:58:21.935Z,97.66
2023-07-30T03:01:23.668Z,97.93
2023-07-30T03:04:25.374Z,98.33
2023-07-30T03:07:27.073Z,97.93
2023-07-30T03:10:28.557Z,98.34
2023-07-30T03:13:30.116Z,98.37
2023-07-30T03:16:31.725Z,98.57
2023-07-30T03:19:33.378Z,100.00
2023-07-30T03:22:34.899Z,98.90
2023-07-30T03:25:36.442Z,99.70
2023-07-30T03:28:40.477Z,100.00
2023-07-30T03:31:42.609Z,100.00
2023-07-30T03:34:44.159Z,100.00
2023-07-30T03:37:45.644Z,100.00
2023-07-30T03:40:47.155Z,100.00
2023-07-30T03:43:48.968Z,100.00
2023-07-30T03:46:50.468Z,100.00
2023-07-30T03:49:52.073Z,100.00
2023-07-30T03:52:54.137Z,100.00
2023-07-30T03:55:55.653Z,100.00
2023-07-30T03:58:57.404Z,100.00
2023-07-30T04:01:59.457Z,99.73
2023-07-30T04:05:00.988Z,99.91
2023-07-30T04:08:02.473Z,99.14
2023-07-30T04:11:04.102Z,99.34
2023-07-30T04:14:08.904Z,99.27
2023-07-30T04:17:10.454Z,98.28
2023-07-30T04:20:12.243Z,97.88
2023-07-30T04:23:13.841Z,96.45
2023-07-30T04:26:15.955Z,94.84
2023-07-30T04:29:17.736Z,94.16
2023-07-30T04:32:19.460Z,93.51
2023-07-30T04:35:21.037Z,92.15
2023-07-30T04:38:22.610Z,91.96
2023-07-30T04:41:24.333Z,90.91
2023-07-30T04:44:31.006Z,89.92
2023-07-30T04:47:38.611Z,89.57
2023-07-30T04:50:43.055Z,89.30
2023-07-30T04:53:44.618Z,89.01
2023-07-30T04:56:46.234Z,89.28
2023-07-30T04:59:47.881Z,87.54
2023-07-30T05:02:49.566Z,87.15
2023-07-30T05:05:51.278Z,86.95
2023-07-30T05:08:52.845Z,86.82
2023-07-30T05:11:54.396Z,86.91
2023-07-30T05:14:55.946Z,86.33
2023-07-30T05:17:57.630Z,85.64
2023-07-30T05:20:59.402Z,86.20
2023-07-30T05:24:01.068Z,86.72
2023-07-30T05:27:02.628Z,86.46
2023-07-30T05:30:04.470Z,86.23
2023-07-30T05:33:06.118Z,86.83
2023-07-30T05:36:07.661Z,86.90
2023-07-30T05:39:09.200Z,86.65
2023-07-30T05:42:10.803Z,86.77
2023-07-30T05:45:13.191Z,85.77
2023-07-30T05:48:14.733Z,84.58
2023-07-30T05:51:16.269Z,82.95
2023-07-30T05:54:18.257Z,82.38
2023-07-30T05:57:19.730Z,82.08
2023-07-30T06:00:21.240Z,82.16
2023-07-30T06:03:22.963Z,82.31
2023-07-30T06:06:28.360Z,82.42
2023-07-30T06:09:30.245Z,82.79
2023-07-30T06:12:31.727Z,82.74
2023-07-30T06:15:34.160Z,82.65
2023-07-30T06:18:35.722Z,83.08
2023-07-30T06:21:37.400Z,82.66
2023-07-30T06:24:39.239Z,82.02
2023-07-30T06:27:40.766Z,82.06
2023-07-30T06:30:42.317Z,81.89
2023-07-30T06:33:43.818Z,80.62
2023-07-30T06:36:45.548Z,79.81
2023-07-30T06:39:47.092Z,79.30
2023-07-30T06:42:48.576Z,77.18
2023-07-30T06:45:50.225Z,77.37
2023-07-30T06:48:51.815Z,77.22
2023-07-30T06:51:53.373Z,76.21
2023-07-30T06:54:54.963Z,75.55
2023-07-30T06:57:56.582Z,75.88
2023-07-30T07:00:58.234Z,75.01
2023-07-30T07:03:59.919Z,73.97
2023-07-30T07:07:04.354Z,73.82
2023-07-30T07:10:06.457Z,72.52
2023-07-30T07:13:08.093Z,71.09
2023-07-30T07:16:09.999Z,68.85
2023-07-30T07:19:12.272Z,68.54
2023-07-30T07:22:13.810Z,67.31
2023-07-30T07:25:15.398Z,66.49
2023-07-30T07:28:17.672Z,65.04
2023-07-30T07:31:19.339Z,64.15
2023-07-30T07:34:21.091Z,63.89
2023-07-30T07:37:22.598Z,64.57
2023-07-30T07:40:24.289Z,63.84
2023-07-30T07:43:26.203Z,63.59
2023-07-30T07:46:28.647Z,64.89
2023-07-30T07:49:30.699Z,64.82
2023-07-30T07:52:32.315Z,63.74
2023-07-30T07:55:34.194Z,63.14
2023-07-30T07:58:36.954Z,62.65
2023-07-30T08:01:38.647Z,61.84
2023-07-30T08:04:40.714Z,62.48
2023-07-30T08:07:42.471Z,62.01
2023-07-30T08:10:46.141Z,61.32
2023-07-30T08:13:47.720Z,60.88
2023-07-30T08:16:49.388Z,59.15
2023-07-30T08:19:51.000Z,58.83
2023-07-30T08:22:52.636Z,59.10
2023-07-30T08:25:54.254Z,59.35
2023-07-30T08:28:55.808Z,59.43
2023-07-30T08:31:57.390Z,57.44
2023-07-30T08:34:58.982Z,56.64
2023-07-30T08:38:00.624Z,57.10
2023-07-30T08:41:02.221Z,57.06
2023-07-30T08:44:03.923Z,57.32
2023-07-30T08:47:05.464Z,56.94
2023-07-30T08:50:07.286Z,56.59
2023-07-30T08:53:09.181Z,57.22
2023-07-30T08:56:11.289Z,57.65
2023-07-30T08:59:13.671Z,57.47
2023-07-30T09:02:21.901Z,58.42
2023-07-30T09:05:24.106Z,59.32
2023-07-30T09:08:25.882Z,58.87
2023-07-30T09:11:30.586Z,59.59
2023-07-30T09:14:32.109Z,60.19
2023-07-30T09:17:35.329Z,59.42
2023-07-30T09:20:41.199Z,59.61
2023-07-30T09:23:47.313Z,60.10
2023-07-30T09:26:48.897Z,58.94
2023-07-30T09:29:58.517Z,58.46
2023-07-30T09:33:00.239Z,59.35
2023-07-30T09:36:05.510Z,60.37
2023-07-30T09:39:15.844Z,58.40
2023-07-30T09:42:17.565Z,59.08
2023-07-30T09:45:22.524Z,58.61
2023-07-30T09:48:24.136Z,57.36
2023-07-30T09:51:26.247Z,56.00
2023-07-30T09:54:27.839Z,54.46
2023-07-30T09:57:29.398Z,54.77
2023-07-30T10:00:31.312Z,55.04
2023-07-30T10:03:36.003Z,55.28
2023-07-30T10:07:01.002Z,53.41
2023-07-30T10:10:03.654Z,54.87
2023-07-30T10:13:09.131Z,53.74
2023-07-30T10:16:12.484Z,53.39
2023-07-30T10:19:16.783Z,53.18
2023-07-30T10:22:18.271Z,52.49
2023-07-30T10:25:22.804Z,53.55
2023-07-30T10:28:31.016Z,53.07
2023-07-30T10:31:50.234Z,53.14
2023-07-30T10:34:51.748Z,53.48
2023-07-30T10:37:53.275Z,53.04
2023-07-30T10:41:09.127Z,54.08
2023-07-30T10:44:28.434Z,53.17
2023-07-30T10:47:36.867Z,53.25
2023-07-30T10:50:39.917Z,52.29
2023-07-30T10:53:49.353Z,52.05
2023-07-30T10:56:51.990Z,52.12
2023-07-30T10:59:56.034Z,52.27
2023-07-30T11:03:01.538Z,51.31
2023-07-30T11:06:04.152Z,50.14
2023-07-30T11:09:06.803Z,50.13
2023-07-30T11:12:09.959Z,50.22
2023-07-30T11:15:11.836Z,51.79
2023-07-30T11:18:14.181Z,53.48
2023-07-30T11:21:17.870Z,55.24
2023-07-30T11:24:19.434Z,55.72
2023-07-30T11:27:21.050Z,56.46
2023-07-30T11:30:23.517Z,57.06
2023-07-30T11:33:25.226Z,55.79
2023-07-30T11:36:27.129Z,53.76
2023-07-30T11:39:29.606Z,51.20
2023-07-30T11:42:32.282Z,51.30
2023-07-30T11:45:33.846Z,51.04
2023-07-30T11:48:36.754Z,50.73
2023-07-30T11:51:38.504Z,51.49
2023-07-30T11:54:40.270Z,50.86
2023-07-30T11:57:41.816Z,51.94
2023-07-30T12:00:44.581Z,53.40
2023-07-30T12:03:46.813Z,54.51
2023-07-30T12:06:50.775Z,54.76
2023-07-30T12:09:52.388Z,55.21
2023-07-30T12:12:54.549Z,56.06
2023-07-30T12:15:57.438Z,55.72
2023-07-30T12:18:58.947Z,53.93
2023-07-30T12:22:00.400Z,52.18
2023-07-30T12:25:04.330Z,52.69
2023-07-30T12:28:06.402Z,52.74
2023-07-30T12:31:08.049Z,52.37
2023-07-30T12:34:09.644Z,51.39
2023-07-30T12:37:11.200Z,49.65
2023-07-30T12:40:13.161Z,50.18
2023-07-30T12:43:14.786Z,49.76
2023-07-30T12:46:16.312Z,49.32
2023-07-30T12:49:17.853Z,48.80
2023-07-30T12:52:19.372Z,48.76
2023-07-30T12:55:20.972Z,48.44
2023-07-30T12:58:22.591Z,48.41
2023-07-30T13:01:24.849Z,48.01
2023-07-30T13:04:29.458Z,47.31
2023-07-30T13:07:31.368Z,47.15
2023-07-30T13:10:33.036Z,46.28
2023-07-30T13:13:34.602Z,46.45
2023-07-30T13:16:36.211Z,46.78
2023-07-30T13:19:37.856Z,46.32
2023-07-30T13:22:39.367Z,46.78
2023-07-30T13:25:40.868Z,46.99
2023-07-30T13:28:42.405Z,50.24
2023-07-30T13:31:43.956Z,51.99
2023-07-30T13:34:45.468Z,52.29
2023-07-30T13:37:47.021Z,52.98
2023-07-30T13:40:48.528Z,53.59
2023-07-30T13:43:50.068Z,53.87
2023-07-30T13:46:51.851Z,53.71
2023-07-30T13:49:55.339Z,54.59
2023-07-30T13:52:56.902Z,54.23
2023-07-30T13:55:58.411Z,53.35
2023-07-30T13:59:00.037Z,54.48
2023-07-30T14:02:01.587Z,55.86
2023-07-30T14:05:03.878Z,56.57
2023-07-30T14:08:05.431Z,56.69
2023-07-30T14:11:07.032Z,55.62
2023-07-30T14:14:08.566Z,55.24
2023-07-30T14:17:10.135Z,54.41
2023-07-30T14:20:11.801Z,51.77
2023-07-30T14:23:13.480Z,49.64
2023-07-30T14:26:15.202Z,47.04
2023-07-30T14:29:16.963Z,46.34
2023-07-30T14:32:21.945Z,46.27
2023-07-30T14:35:23.601Z,46.58
2023-07-30T14:38:25.194Z,47.59
2023-07-30T14:41:26.657Z,48.30
2023-07-30T14:44:28.276Z,48.56
2023-07-30T14:47:30.130Z,50.55
2023-07-30T14:50:31.758Z,51.19
2023-07-30T14:53:33.262Z,52.12
2023-07-30T14:56:34.809Z,49.94
2023-07-30T14:59:36.328Z,50.55
2023-07-30T15:02:37.985Z,50.90
2023-07-30T15:05:39.627Z,46.56
2023-07-30T15:08:41.221Z,45.83
2023-07-30T15:11:42.746Z,45.63
2023-07-30T15:14:44.294Z,46.73
2023-07-30T15:17:45.851Z,47.03
2023-07-30T15:20:48.578Z,47.67
2023-07-30T15:23:50.105Z,47.97
2023-07-30T15:26:51.667Z,47.85
2023-07-30T15:29:53.256Z,48.32
2023-07-30T15:32:54.799Z,47.97
2023-07-30T15:35:56.322Z,47.81
2023-07-30T15:38:58.073Z,46.31
2023-07-30T15:41:59.597Z,47.22
2023-07-30T15:45:01.176Z,47.99
2023-07-30T15:48:03.004Z,45.07
2023-07-30T15:51:04.743Z,44.23
2023-07-30T15:54:06.325Z,46.59
2023-07-30T15:57:12.597Z,47.12
2023-07-30T16:00:16.270Z,47.51
2023-07-30T16:03:18.088Z,46.12
2023-07-30T16:06:25.617Z,43.80
2023-07-30T16:09:27.155Z,43.73
2023-07-30T16:12:28.680Z,42.50
2023-07-30T16:15:30.977Z,43.49
2023-07-30T16:18:32.483Z,44.29
2023-07-30T16:21:36.344Z,44.08
2023-07-30T16:24:37.848Z,43.39
2023-07-30T16:27:39.722Z,41.98
2023-07-30T16:30:41.212Z,40.18
2023-07-30T16:33:42.774Z,40.81
2023-07-30T16:36:44.375Z,42.51
2023-07-30T16:39:48.152Z,43.82
2023-07-30T16:42:49.794Z,45.16
2023-07-30T16:45:51.330Z,46.16
2023-07-30T16:48:52.930Z,46.91
2023-07-30T16:51:54.454Z,47.49
2023-07-30T16:54:56.037Z,47.78
2023-07-30T16:57:57.583Z,48.05
2023-07-30T17:01:05.170Z,49.22
2023-07-30T17:04:06.758Z,50.02
2023-07-30T17:07:08.268Z,50.09
2023-07-30T17:10:10.000Z,50.74
2023-07-30T17:13:13.369Z,50.57
2023-07-30T17:16:17.482Z,49.24
2023-07-30T17:19:19.011Z,48.22
2023-07-30T17:22:20.555Z,48.28
2023-07-30T17:25:22.300Z,48.00
2023-07-30T17:28:24.281Z,47.93
2023-07-30T17:31:25.984Z,49.25
2023-07-30T17:34:27.587Z,50.05
2023-07-30T17:37:29.199Z,50.66
2023-07-30T17:40:31.198Z,50.46
2023-07-30T17:43:32.770Z,49.81
2023-07-30T17:46:35.989Z,50.41
2023-07-30T17:49:37.659Z,50.50
2023-07-30T17:52:39.340Z,50.66
2023-07-30T17:55:42.792Z,51.60
2023-07-30T17:58:44.350Z,51.72
2023-07-30T18:01:45.955Z,52.15
2023-07-30T18:04:47.486Z,50.78
2023-07-30T18:07:51.247Z,51.22
2023-07-30T18:10:54.442Z,52.20
2023-07-30T18:13:55.928Z,52.59
2023-07-30T18:16:57.415Z,51.93
2023-07-30T18:19:59.029Z,52.20
2023-07-30T18:23:01.857Z,52.42
2023-07-30T18:26:03.379Z,52.91
2023-07-30T18:29:04.979Z,53.66
2023-07-30T18:32:07.908Z,54.06
2023-07-30T18:35:11.621Z,54.91
2023-07-30T18:38:13.180Z,56.31
2023-07-30T18:41:14.784Z,56.87
2023-07-30T18:44:16.409Z,57.32
2023-07-30T18:47:17.858Z,58.80
2023-07-30T18:50:19.412Z,59.71
2023-07-30T18:53:22.940Z,60.73
2023-07-30T18:56:24.496Z,61.88
2023-07-30T18:59:25.979Z,62.81
2023-07-30T19:02:27.585Z,63.35
2023-07-30T19:05:29.201Z,64.90
2023-07-30T19:08:30.745Z,66.07
2023-07-30T19:11:32.297Z,67.12
2023-07-30T19:14:33.869Z,67.60
2023-07-30T19:17:35.539Z,67.80
2023-07-30T19:20:37.246Z,68.89
2023-07-30T19:23:40.199Z,70.20
2023-07-30T19:26:41.950Z,71.38
2023-07-30T19:29:43.544Z,73.43
2023-07-30T19:32:45.104Z,73.88
2023-07-30T19:35:51.267Z,75.20
2023-07-30T19:38:53.578Z,75.28
2023-07-30T19:41:55.058Z,75.11
2023-07-30T19:44:56.642Z,76.22
2023-07-30T19:47:58.645Z,75.73
2023-07-30T19:51:00.847Z,76.78
2023-07-30T19:54:02.363Z,77.00
2023-07-30T19:57:04.237Z,76.81
2023-07-30T20:00:06.568Z,77.90
2023-07-30T20:03:11.072Z,79.17
2023-07-30T20:06:14.599Z,78.91
2023-07-30T20:09:16.406Z,79.54
2023-07-30T20:12:17.937Z,80.88
2023-07-30T20:15:19.386Z,81.86
2023-07-30T20:18:20.990Z,82.84
2023-07-30T20:21:23.716Z,82.90
2023-07-30T20:24:28.372Z,82.61
2023-07-30T20:27:29.863Z,83.34
2023-07-30T20:30:32.829Z,82.52
2023-07-30T20:33:36.456Z,82.06
2023-07-30T20:36:38.396Z,82.22
2023-07-30T20:39:40.099Z,83.20
2023-07-30T20:42:41.620Z,83.51
2023-07-30T20:45:43.214Z,82.41
2023-07-30T20:48:45.044Z,83.50
2023-07-30T20:51:46.624Z,84.07
2023-07-30T20:54:48.131Z,84.23
2023-07-30T20:57:49.677Z,83.82
2023-07-30T21:00:51.182Z,84.20
2023-07-30T21:03:52.695Z,83.61
2023-07-30T21:06:54.231Z,84.13
2023-07-30T21:09:55.887Z,84.99
2023-07-30T21:12:57.363Z,85.20
2023-07-30T21:15:58.908Z,84.73
2023-07-30T21:19:00.535Z,85.22
2023-07-30T21:22:02.142Z,85.80
2023-07-30T21:25:03.832Z,85.40
2023-07-30T21:28:05.449Z,85.78
2023-07-30T21:31:07.601Z,85.80
2023-07-30T21:34:09.208Z,85.96
2023-07-30T21:37:10.953Z,86.69
2023-07-30T21:40:12.691Z,86.97
2023-07-30T21:43:14.560Z,87.23
2023-07-30T21:46:16.074Z,86.76
2023-07-30T21:49:17.574Z,87.47
2023-07-30T21:52:31.056Z,88.94
2023-07-30T21:55:32.609Z,89.30
2023-07-30T21:58:34.141Z,89.31
2023-07-30T22:01:35.765Z,91.31
2023-07-30T22:04:37.352Z,91.67
2023-07-30T22:07:38.862Z,92.70
2023-07-30T22:10:44.883Z,93.36
2023-07-30T22:13:47.160Z,93.62
2023-07-30T22:16:48.757Z,93.77
2023-07-30T22:19:50.307Z,93.84
2023-07-30T22:22:51.836Z,93.92
2023-07-30T22:25:53.665Z,93.83
2023-07-30T22:28:55.221Z,94.73
2023-07-30T22:31:56.849Z,94.49
2023-07-30T22:34:58.485Z,95.65
2023-07-30T22:38:00.021Z,95.68
2023-07-30T22:41:01.567Z,96.40
2023-07-30T22:44:03.218Z,96.29
2023-07-30T22:47:04.858Z,97.32
2023-07-30T22:50:06.941Z,97.27
2023-07-30T22:53:08.644Z,97.63
2023-07-30T22:56:10.116Z,98.04
2023-07-30T22:59:11.606Z,97.70
2023-07-30T23:02:13.164Z,97.38
2023-07-30T23:05:14.671Z,97.75
2023-07-30T23:08:16.674Z,97.18
2023-07-30T23:11:18.225Z,97.36
2023-07-30T23:14:21.294Z,98.01
2023-07-30T23:17:22.846Z,98.41
2023-07-30T23:20:24.498Z,97.99
2023-07-30T23:23:26.018Z,98.17
2023-07-30T23:26:27.534Z,98.99
2023-07-30T23:29:29.034Z,98.71
2023-07-30T23:32:30.623Z,99.59
2023-07-30T23:35:32.148Z,100.00
2023-07-30T23:38:33.650Z,100.00
2023-07-30T23:41:35.270Z,100.00
2023-07-30T23:44:36.749Z,100.00
2023-07-30T23:47:38.283Z,100.00
2023-07-30T23:50:44.010Z,100.00
2023-07-30T23:53:50.803Z,100.00
2023-07-30T23:56:52.269Z,100.00
2023-07-30T23:59:53.748Z,100.00
